sensor_id;sensor_type;location;lat;lon;timestamp;pressure;altitude;pressure_sealevel;temperature;humidity
64141;BME280;50436;50.618;7.932;2023-07-29T00:02:17;95991.03;;;16.26;100.00
64141;BME280;50436;50.618;7.932;2023-07-29T00:05:03;95999.66;;;16.28;100.00
64141;BME280;50436;50.618;7.932;2023-07-29T00:07:49;95983.78;;;16.27;100.00
64141;BME280;50436;50.618;7.932;2023-07-29T00:10:36;95991.88;;;16.27;100.00
64141;BME280;50436;50.618;7.932;2023-07-29T00:13:22;95983.66;;;16.32;100.00
64141;BME280;50436;50.618;7.932;2023-07-29T00:16:08;95979.88;;;16.33;100.00
64141;BME280;50436;50.618;7.932;2023-07-29T00:18:54;95965.06;;;16.30;100.00
64141;BME280;50436;50.618;7.932;2023-07-29T00:21:40;95979.66;;;16.29;100.00
64141;BME280;50436;50.618;7.932;2023-07-29T00:24:26;95986.66;;;16.30;100.00
64141;BME280;50436;50.618;7.932;2023-07-29T00:27:12;95970.66;;;16.20;100.00
64141;BME280;50436;50.618;7.932;2023-07-29T00:29:58;95975.31;;;16.14;100.00
64141;BME280;50436;50.618;7.932;2023-07-29T00:32:44;95973.00;;;16.08;100.00
64141;BME280;50436;50.618;7.932;2023-07-29T00:35:32;95973.00;;;16.08;100.00
64141;BME280;50436;50.618;7.932;2023-07-29T00:38:19;95966.50;;;16.09;100.00
64141;BME280;50436;50.618;7.932;2023-07-29T00:41:05;95965.94;;;16.12;100.00
64141;BME280;50436;50.618;7.932;2023-07-29T00:43:52;95965.94;;;16.12;100.00
64141;BME280;50436;50.618;7.932;2023-07-29T00:46:40;95970.00;;;16.09;100.00
64141;BME280;50436;50.618;7.932;2023-07-29T00:49:27;95965.41;;;16.10;100.00
64141;BME280;50436;50.618;7.932;2023-07-29T00:52:13;95967.53;;;16.13;100.00
64141;BME280;50436;50.618;7.932;2023-07-29T00:54:59;95962.72;;;16.10;100.00
64141;BME280;50436;50.618;7.932;2023-07-29T00:57:45;95959.44;;;16.13;100.00
64141;BME280;50436;50.618;7.932;2023-07-29T01:00:33;95953.25;;;16.12;100.00
64141;BME280;50436;50.618;7.932;2023-07-29T01:03:26;95951.91;;;16.10;100.00
64141;BME280;50436;50.618;7.932;2023-07-29T01:06:29;95947.03;;;16.12;100.00
64141;BME280;50436;50.618;7.932;2023-07-29T01:09:43;95944.41;;;16.07;100.00
64141;BME280;50436;50.618;7.932;2023-07-29T01:12:40;95944.88;;;15.95;100.00
64141;BME280;50436;50.618;7.932;2023-07-29T01:16:00;95941.97;;;15.92;100.00
64141;BME280;50436;50.618;7.932;2023-07-29T01:18:50;95940.06;;;15.92;100.00
64141;BME280;50436;50.618;7.932;2023-07-29T01:21:38;95942.16;;;15.95;100.00
64141;BME280;50436;50.618;7.932;2023-07-29T01:24:24;95942.47;;;15.94;100.00
64141;BME280;50436;50.618;7.932;2023-07-29T01:27:10;95950.97;;;16.01;100.00
64141;BME280;50436;50.618;7.932;2023-07-29T01:29:57;95940.78;;;15.98;100.00
64141;BME280;50436;50.618;7.932;2023-07-29T01:32:58;95931.00;;;16.02;100.00
64141;BME280;50436;50.618;7.932;2023-07-29T01:36:01;95935.28;;;16.03;100.00
64141;BME280;50436;50.618;7.932;2023-07-29T01:38:51;95941.22;;;16.05;100.00
64141;BME280;50436;50.618;7.932;2023-07-29T01:41:41;95928.31;;;16.02;100.00
64141;BME280;50436;50.618;7.932;2023-07-29T01:44:27;95932.59;;;16.03;100.00
64141;BME280;50436;50.618;7.932;2023-07-29T01:47:13;95926.63;;;16.06;100.00
64141;BME280;50436;50.618;7.932;2023-07-29T01:49:59;95918.84;;;16.04;100.00
64141;BME280;50436;50.618;7.932;2023-07-29T01:52:45;95921.81;;;16.03;100.00
64141;BME280;50436;50.618;7.932;2023-07-29T01:55:31;95923.63;;;16.07;100.00
64141;BME280;50436;50.618;7.932;2023-07-29T01:58:17;95926.66;;;16.20;100.00
64141;BME280;50436;50.618;7.932;2023-07-29T02:01:06;95918.28;;;16.21;100.00
64141;BME280;50436;50.618;7.932;2023-07-29T02:03:52;95915.47;;;16.26;100.00
64141;BME280;50436;50.618;7.932;2023-07-29T02:06:41;95903.59;;;16.27;100.00
64141;BME280;50436;50.618;7.932;2023-07-29T02:09:27;95905.66;;;16.16;100.00
64141;BME280;50436;50.618;7.932;2023-07-29T02:12:13;95897.84;;;16.15;100.00
64141;BME280;50436;50.618;7.932;2023-07-29T02:14:59;95884.66;;;16.13;100.00
64141;BME280;50436;50.618;7.932;2023-07-29T02:17:45;95896.03;;;16.10;100.00
64141;BME280;50436;50.618;7.932;2023-07-29T02:20:31;95899.16;;;16.04;100.00
64141;BME280;50436;50.618;7.932;2023-07-29T02:23:17;95904.53;;;16.04;100.00
64141;BME280;50436;50.618;7.932;2023-07-29T02:26:03;95899.22;;;15.99;100.00
64141;BME280;50436;50.618;7.932;2023-07-29T02:28:49;95896.44;;;16.04;100.00
64141;BME280;50436;50.618;7.932;2023-07-29T02:31:34;95895.34;;;16.05;100.00
64141;BME280;50436;50.618;7.932;2023-07-29T02:34:22;95887.75;;;16.07;100.00
64141;BME280;50436;50.618;7.932;2023-07-29T02:37:08;95888.84;;;16.06;100.00
64141;BME280;50436;50.618;7.932;2023-07-29T02:39:54;95884.03;;;16.03;100.00
64141;BME280;50436;50.618;7.932;2023-07-29T02:42:40;95883.63;;;15.96;100.00
64141;BME280;50436;50.618;7.932;2023-07-29T02:45:26;95879.84;;;15.97;100.00
64141;BME280;50436;50.618;7.932;2023-07-29T02:48:12;95882.53;;;15.97;100.00
64141;BME280;50436;50.618;7.932;2023-07-29T02:50:58;95879.84;;;15.97;100.00
64141;BME280;50436;50.618;7.932;2023-07-29T02:53:44;95882.44;;;16.02;100.00
64141;BME280;50436;50.618;7.932;2023-07-29T02:56:30;95875.06;;;16.07;100.00
64141;BME280;50436;50.618;7.932;2023-07-29T02:59:18;95863.16;;;16.08;100.00
64141;BME280;50436;50.618;7.932;2023-07-29T03:02:05;95853.75;;;16.06;100.00
64141;BME280;50436;50.618;7.932;2023-07-29T03:04:51;95852.06;;;15.96;100.00
64141;BME280;50436;50.618;7.932;2023-07-29T03:07:37;95862.44;;;16.03;100.00
64141;BME280;50436;50.618;7.932;2023-07-29T03:10:24;95865.66;;;16.05;100.00
64141;BME280;50436;50.618;7.932;2023-07-29T03:13:09;95861.56;;;16.07;100.00
64141;BME280;50436;50.618;7.932;2023-07-29T03:16:05;95867.44;;;16.09;100.00
64141;BME280;50436;50.618;7.932;2023-07-29T03:18:51;95865.28;;;16.11;100.00
64141;BME280;50436;50.618;7.932;2023-07-29T03:21:37;95864.38;;;16.16;100.00
64141;BME280;50436;50.618;7.932;2023-07-29T03:24:23;95871.34;;;16.17;100.00
64141;BME280;50436;50.618;7.932;2023-07-29T03:27:09;95871.34;;;16.17;100.00
64141;BME280;50436;50.618;7.932;2023-07-29T03:29:55;95861.88;;;16.20;100.00
64141;BME280;50436;50.618;7.932;2023-07-29T03:32:43;95867.69;;;16.27;100.00
64141;BME280;50436;50.618;7.932;2023-07-29T03:35:31;95865.50;;;16.29;100.00
64141;BME280;50436;50.618;7.932;2023-07-29T03:38:17;95865.19;;;16.30;100.00
64141;BME280;50436;50.618;7.932;2023-07-29T03:41:03;95865.09;;;16.35;100.00
64141;BME280;50436;50.618;7.932;2023-07-29T03:43:49;95850.50;;;16.36;100.00
64141;BME280;50436;50.618;7.932;2023-07-29T03:46:34;95865.38;;;16.34;100.00
64141;BME280;50436;50.618;7.932;2023-07-29T03:49:21;95849.47;;;16.32;100.00
64141;BME280;50436;50.618;7.932;2023-07-29T03:52:08;95846.91;;;16.27;100.00
64141;BME280;50436;50.618;7.932;2023-07-29T03:54:53;95863.78;;;16.33;100.00
64141;BME280;50436;50.618;7.932;2023-07-29T03:57:39;95856.09;;;16.40;100.00
64141;BME280;50436;50.618;7.932;2023-07-29T04:00:26;95858.00;;;16.39;100.00
64141;BME280;50436;50.618;7.932;2023-07-29T04:03:12;95858.00;;;16.39;100.00
64141;BME280;50436;50.618;7.932;2023-07-29T04:05:58;95853.19;;;16.36;100.00
64141;BME280;50436;50.618;7.932;2023-07-29T04:08:44;95858.47;;;16.41;100.00
64141;BME280;50436;50.618;7.932;2023-07-29T04:11:30;95856.31;;;16.43;100.00
64141;BME280;50436;50.618;7.932;2023-07-29T04:14:16;95853.28;;;16.45;100.00
64141;BME280;50436;50.618;7.932;2023-07-29T04:17:02;95847.59;;;16.47;100.00
64141;BME280;50436;50.618;7.932;2023-07-29T04:19:48;95858.09;;;16.48;100.00
64141;BME280;50436;50.618;7.932;2023-07-29T04:22:37;95854.69;;;16.42;100.00
64141;BME280;50436;50.618;7.932;2023-07-29T04:25:23;95854.09;;;16.46;100.00
64141;BME280;50436;50.618;7.932;2023-07-29T04:28:09;95861.09;;;16.47;100.00
64141;BME280;50436;50.618;7.932;2023-07-29T04:30:55;95861.31;;;16.50;100.00
64141;BME280;50436;50.618;7.932;2023-07-29T04:33:41;95857.69;;;16.55;100.00
64141;BME280;50436;50.618;7.932;2023-07-29T04:36:26;95854.50;;;16.53;100.00
64141;BME280;50436;50.618;7.932;2023-07-29T04:39:13;95847.50;;;16.52;100.00
64141;BME280;50436;50.618;7.932;2023-07-29T04:41:58;95843.28;;;16.59;100.00
64141;BME280;50436;50.618;7.932;2023-07-29T04:44:46;95848.38;;;16.61;100.00
64141;BME280;50436;50.618;7.932;2023-07-29T04:47:32;95850.47;;;16.64;100.00
64141;BME280;50436;50.618;7.932;2023-07-29T04:50:18;95845.50;;;16.71;100.00
64141;BME280;50436;50.618;7.932;2023-07-29T04:53:04;95850.31;;;16.74;100.00
64141;BME280;50436;50.618;7.932;2023-07-29T04:55:49;95854.09;;;16.87;100.00
64141;BME280;50436;50.618;7.932;2023-07-29T04:58:35;95850.00;;;16.89;100.00
64141;BME280;50436;50.618;7.932;2023-07-29T05:01:22;95841.38;;;16.87;100.00
64141;BME280;50436;50.618;7.932;2023-07-29T05:04:08;95843.47;;;16.90;100.00
64141;BME280;50436;50.618;7.932;2023-07-29T05:06:54;95846.28;;;16.85;100.00
64141;BME280;50436;50.618;7.932;2023-07-29T05:09:40;95846.91;;;16.82;100.00
64141;BME280;50436;50.618;7.932;2023-07-29T05:12:26;95841.50;;;16.82;100.00
64141;BME280;50436;50.618;7.932;2023-07-29T05:15:12;95850.28;;;16.88;100.00
64141;BME280;50436;50.618;7.932;2023-07-29T05:17:58;95849.47;;;16.87;100.00
64141;BME280;50436;50.618;7.932;2023-07-29T05:20:44;95852.50;;;16.86;100.00
64141;BME280;50436;50.618;7.932;2023-07-29T05:23:30;95848.69;;;16.87;100.00
64141;BME280;50436;50.618;7.932;2023-07-29T05:26:15;95853.91;;;16.83;100.00
64141;BME280;50436;50.618;7.932;2023-07-29T05:29:01;95859.50;;;16.87;100.00
64141;BME280;50436;50.618;7.932;2023-07-29T05:31:48;95856.69;;;16.92;100.00
64141;BME280;50436;50.618;7.932;2023-07-29T05:34:33;95849.84;;;17.08;100.00
64141;BME280;50436;50.618;7.932;2023-07-29T05:37:19;95845.31;;;17.17;100.00
64141;BME280;50436;50.618;7.932;2023-07-29T05:40:06;95850.13;;;17.43;100.00
64141;BME280;50436;50.618;7.932;2023-07-29T05:42:53;95856.69;;;17.50;100.00
64141;BME280;50436;50.618;7.932;2023-07-29T05:45:39;95849.53;;;17.46;100.00
64141;BME280;50436;50.618;7.932;2023-07-29T05:48:27;95852.34;;;17.41;100.00
64141;BME280;50436;50.618;7.932;2023-07-29T05:51:13;95853.22;;;17.27;100.00
64141;BME280;50436;50.618;7.932;2023-07-29T05:53:59;95869.13;;;17.29;100.00
64141;BME280;50436;50.618;7.932;2023-07-29T05:56:45;95866.28;;;17.34;100.00
64141;BME280;50436;50.618;7.932;2023-07-29T05:59:32;95866.81;;;17.36;100.00
64141;BME280;50436;50.618;7.932;2023-07-29T06:02:18;95871.28;;;17.41;100.00
64141;BME280;50436;50.618;7.932;2023-07-29T06:05:04;95867.06;;;17.35;100.00
64141;BME280;50436;50.618;7.932;2023-07-29T06:07:51;95870.03;;;17.24;100.00
64141;BME280;50436;50.618;7.932;2023-07-29T06:10:37;95848.81;;;17.18;100.00
64141;BME280;50436;50.618;7.932;2023-07-29T06:13:23;95844.94;;;17.10;100.00
64141;BME280;50436;50.618;7.932;2023-07-29T06:16:09;95857.22;;;17.16;100.00
64141;BME280;50436;50.618;7.932;2023-07-29T06:18:57;95858.91;;;17.26;100.00
64141;BME280;50436;50.618;7.932;2023-07-29T06:21:43;95857.56;;;17.37;100.00
64141;BME280;50436;50.618;7.932;2023-07-29T06:24:29;95858.63;;;17.50;100.00
64141;BME280;50436;50.618;7.932;2023-07-29T06:27:14;95844.25;;;17.63;100.00
64141;BME280;50436;50.618;7.932;2023-07-29T06:30:00;95841.63;;;17.72;100.00
64141;BME280;50436;50.618;7.932;2023-07-29T06:32:46;95833.50;;;17.72;100.00
64141;BME280;50436;50.618;7.932;2023-07-29T06:35:32;95834.91;;;17.69;100.00
64141;BME280;50436;50.618;7.932;2023-07-29T06:38:18;95833.91;;;17.65;100.00
64141;BME280;50436;50.618;7.932;2023-07-29T06:41:07;95848.22;;;17.66;100.00
64141;BME280;50436;50.618;7.932;2023-07-29T06:43:56;95848.84;;;17.63;100.00
64141;BME280;50436;50.618;7.932;2023-07-29T06:46:41;95844.19;;;17.54;100.00
64141;BME280;50436;50.618;7.932;2023-07-29T06:49:27;95842.81;;;17.66;100.00
64141;BME280;50436;50.618;7.932;2023-07-29T06:52:13;95849.53;;;17.68;100.00
64141;BME280;50436;50.618;7.932;2023-07-29T06:54:59;95854.41;;;17.80;100.00
64141;BME280;50436;50.618;7.932;2023-07-29T06:57:48;95854.91;;;17.82;100.00
64141;BME280;50436;50.618;7.932;2023-07-29T07:00:34;95869.16;;;17.96;100.00
64141;BME280;50436;50.618;7.932;2023-07-29T07:03:19;95872.84;;;18.00;100.00
64141;BME280;50436;50.618;7.932;2023-07-29T07:06:08;95869.44;;;18.17;100.00
64141;BME280;50436;50.618;7.932;2023-07-29T07:08:53;95871.72;;;18.32;100.00
64141;BME280;50436;50.618;7.932;2023-07-29T07:11:39;95872.38;;;18.29;100.00
64141;BME280;50436;50.618;7.932;2023-07-29T07:14:25;95874.75;;;18.31;100.00
64141;BME280;50436;50.618;7.932;2023-07-29T07:17:11;95876.47;;;18.27;100.00
64141;BME280;50436;50.618;7.932;2023-07-29T07:19:57;95879.06;;;18.32;100.00
64141;BME280;50436;50.618;7.932;2023-07-29T07:22:42;95884.69;;;18.44;100.00
64141;BME280;50436;50.618;7.932;2023-07-29T07:25:28;95886.78;;;18.47;100.00
64141;BME280;50436;50.618;7.932;2023-07-29T07:28:14;95897.06;;;18.68;100.00
64141;BME280;50436;50.618;7.932;2023-07-29T07:31:00;95889.94;;;18.72;100.00
64141;BME280;50436;50.618;7.932;2023-07-29T07:33:48;95887.13;;;18.94;100.00
64141;BME280;50436;50.618;7.932;2023-07-29T07:36:34;95871.19;;;19.01;100.00
64141;BME280;50436;50.618;7.932;2023-07-29T07:39:20;95883.19;;;19.09;100.00
64141;BME280;50436;50.618;7.932;2023-07-29T07:42:06;95874.06;;;19.13;100.00
64141;BME280;50436;50.618;7.932;2023-07-29T07:44:51;95877.13;;;19.29;100.00
64141;BME280;50436;50.618;7.932;2023-07-29T07:47:37;95871.34;;;19.13;100.00
64141;BME280;50436;50.618;7.932;2023-07-29T07:50:23;95873.78;;;19.15;100.00
64141;BME280;50436;50.618;7.932;2023-07-29T07:53:09;95869.50;;;19.57;100.00
64141;BME280;50436;50.618;7.932;2023-07-29T07:55:55;95867.56;;;19.84;100.00
64141;BME280;50436;50.618;7.932;2023-07-29T07:58:41;95880.09;;;20.31;100.00
64141;BME280;50436;50.618;7.932;2023-07-29T08:01:27;95874.56;;;20.66;100.00
64141;BME280;50436;50.618;7.932;2023-07-29T08:04:12;95869.50;;;20.39;100.00
64141;BME280;50436;50.618;7.932;2023-07-29T08:06:58;95862.44;;;20.08;100.00
64141;BME280;50436;50.618;7.932;2023-07-29T08:09:44;95867.81;;;20.25;100.00
64141;BME280;50436;50.618;7.932;2023-07-29T08:12:30;95860.34;;;20.61;100.00
64141;BME280;50436;50.618;7.932;2023-07-29T08:15:16;95874.97;;;21.36;100.00
64141;BME280;50436;50.618;7.932;2023-07-29T08:18:02;95881.94;;;21.16;100.00
64141;BME280;50436;50.618;7.932;2023-07-29T08:20:54;95881.50;;;20.84;100.00
64141;BME280;50436;50.618;7.932;2023-07-29T08:23:41;95876.50;;;20.95;100.00
64141;BME280;50436;50.618;7.932;2023-07-29T08:26:27;95883.13;;;20.85;100.00
64141;BME280;50436;50.618;7.932;2023-07-29T08:29:13;95882.63;;;20.83;100.00
64141;BME280;50436;50.618;7.932;2023-07-29T08:32:01;95891.22;;;20.94;100.00
64141;BME280;50436;50.618;7.932;2023-07-29T08:34:47;95884.97;;;20.64;100.00
64141;BME280;50436;50.618;7.932;2023-07-29T08:37:32;95891.41;;;20.42;100.00
64141;BME280;50436;50.618;7.932;2023-07-29T08:40:22;95893.00;;;20.52;100.00
64141;BME280;50436;50.618;7.932;2023-07-29T08:43:14;95882.63;;;20.83;100.00
64141;BME280;50436;50.618;7.932;2023-07-29T08:46:02;95885.91;;;20.98;100.00
64141;BME280;50436;50.618;7.932;2023-07-29T08:48:49;95885.28;;;20.63;100.00
64141;BME280;50436;50.618;7.932;2023-07-29T08:51:36;95881.41;;;20.72;100.00
64141;BME280;50436;50.618;7.932;2023-07-29T08:54:22;95888.31;;;20.61;100.00
64141;BME280;50436;50.618;7.932;2023-07-29T08:57:08;95888.03;;;20.54;100.00
64141;BME280;50436;50.618;7.932;2023-07-29T08:59:55;95881.50;;;20.84;100.00
64141;BME280;50436;50.618;7.932;2023-07-29T09:02:41;95892.69;;;21.63;100.00
64141;BME280;50436;50.618;7.932;2023-07-29T09:05:27;95886.56;;;22.08;100.00
64141;BME280;50436;50.618;7.932;2023-07-29T09:08:13;95878.09;;;22.01;100.00
64141;BME280;50436;50.618;7.932;2023-07-29T09:11:01;95881.47;;;21.44;100.00
64141;BME280;50436;50.618;7.932;2023-07-29T09:13:47;95891.66;;;21.26;100.00
64141;BME280;50436;50.618;7.932;2023-07-29T09:16:33;95886.81;;;20.81;100.00
64141;BME280;50436;50.618;7.932;2023-07-29T09:19:19;95892.91;;;20.69;100.00
64141;BME280;50436;50.618;7.932;2023-07-29T09:22:17;95892.38;;;20.46;100.00
64141;BME280;50436;50.618;7.932;2023-07-29T09:25:03;95903.59;;;20.27;100.00
64141;BME280;50436;50.618;7.932;2023-07-29T09:27:49;95908.75;;;20.12;100.00
64141;BME280;50436;50.618;7.932;2023-07-29T09:30:35;95904.25;;;20.07;100.00
64141;BME280;50436;50.618;7.932;2023-07-29T09:33:21;95900.72;;;20.15;100.00
64141;BME280;50436;50.618;7.932;2023-07-29T09:36:09;95890.94;;;20.49;100.00
64141;BME280;50436;50.618;7.932;2023-07-29T09:38:56;95896.22;;;20.83;100.00
64141;BME280;50436;50.618;7.932;2023-07-29T09:41:47;95883.22;;;21.19;100.00
64141;BME280;50436;50.618;7.932;2023-07-29T09:44:38;95886.44;;;21.62;100.00
64141;BME280;50436;50.618;7.932;2023-07-29T09:47:25;95875.63;;;21.54;100.00
64141;BME280;50436;50.618;7.932;2023-07-29T09:50:11;95873.50;;;21.80;100.00
64141;BME280;50436;50.618;7.932;2023-07-29T09:52:57;95887.31;;;21.54;100.00
64141;BME280;50436;50.618;7.932;2023-07-29T09:55:47;95878.59;;;20.90;100.00
64141;BME280;50436;50.618;7.932;2023-07-29T09:58:37;95897.81;;;20.29;100.00
64141;BME280;50436;50.618;7.932;2023-07-29T10:01:24;95897.75;;;19.73;100.00
64141;BME280;50436;50.618;7.932;2023-07-29T10:04:10;95911.44;;;19.42;100.00
64141;BME280;50436;50.618;7.932;2023-07-29T10:06:57;95915.88;;;19.21;100.00
64141;BME280;50436;50.618;7.932;2023-07-29T10:09:45;95928.44;;;18.91;100.00
64141;BME280;50436;50.618;7.932;2023-07-29T10:12:32;95925.38;;;18.84;100.00
64141;BME280;50436;50.618;7.932;2023-07-29T10:15:18;95930.16;;;18.87;100.00
64141;BME280;50436;50.618;7.932;2023-07-29T10:18:04;95929.50;;;18.90;100.00
64141;BME280;50436;50.618;7.932;2023-07-29T10:20:52;95939.09;;;18.96;100.00
64141;BME280;50436;50.618;7.932;2023-07-29T10:23:42;95935.66;;;19.21;100.00
64141;BME280;50436;50.618;7.932;2023-07-29T10:26:37;95937.47;;;19.43;100.00
64141;BME280;50436;50.618;7.932;2023-07-29T10:29:38;95940.06;;;19.57;100.00
64141;BME280;50436;50.618;7.932;2023-07-29T10:32:25;95947.44;;;20.00;100.00
64141;BME280;50436;50.618;7.932;2023-07-29T10:35:17;95942.47;;;20.02;100.00
64141;BME280;50436;50.618;7.932;2023-07-29T10:38:03;95941.00;;;20.13;100.00
64141;BME280;50436;50.618;7.932;2023-07-29T10:40:54;95936.91;;;20.71;100.00
64141;BME280;50436;50.618;7.932;2023-07-29T10:43:45;95937.66;;;21.69;100.00
64141;BME280;50436;50.618;7.932;2023-07-29T10:46:34;95937.97;;;22.09;100.00
64141;BME280;50436;50.618;7.932;2023-07-29T10:49:23;95933.66;;;22.99;100.00
64141;BME280;50436;50.618;7.932;2023-07-29T10:52:13;95935.66;;;23.75;100.00
64141;BME280;50436;50.618;7.932;2023-07-29T10:55:00;95936.47;;;23.76;100.00
64141;BME280;50436;50.618;7.932;2023-07-29T10:57:47;95934.31;;;23.69;100.00
64141;BME280;50436;50.618;7.932;2023-07-29T11:00:33;95931.50;;;23.29;100.00
64141;BME280;50436;50.618;7.932;2023-07-29T11:03:19;95938.06;;;23.65;100.00
64141;BME280;50436;50.618;7.932;2023-07-29T11:06:05;95928.59;;;24.14;100.00
64141;BME280;50436;50.618;7.932;2023-07-29T11:08:51;95934.06;;;24.58;100.00
64141;BME280;50436;50.618;7.932;2023-07-29T11:11:38;95926.81;;;24.50;100.00
64141;BME280;50436;50.618;7.932;2023-07-29T11:14:24;95922.81;;;24.60;100.00
64141;BME280;50436;50.618;7.932;2023-07-29T11:17:10;95920.66;;;25.48;100.00
64141;BME280;50436;50.618;7.932;2023-07-29T11:19:58;95918.06;;;26.09;100.00
64141;BME280;50436;50.618;7.932;2023-07-29T11:22:45;95921.28;;;26.34;92.89
64141;BME280;50436;50.618;7.932;2023-07-29T11:25:31;95924.47;;;25.98;96.33
64141;BME280;50436;50.618;7.932;2023-07-29T11:28:19;95926.88;;;28.43;86.41
64141;BME280;50436;50.618;7.932;2023-07-29T11:31:05;95922.84;;;27.73;85.26
64141;BME280;50436;50.618;7.932;2023-07-29T11:33:51;95922.81;;;30.35;72.76
64141;BME280;50436;50.618;7.932;2023-07-29T11:36:37;95929.72;;;29.38;72.03
64141;BME280;50436;50.618;7.932;2023-07-29T11:39:23;95916.13;;;32.84;57.02
64141;BME280;50436;50.618;7.932;2023-07-29T11:42:12;95912.38;;;32.50;52.26
64141;BME280;50436;50.618;7.932;2023-07-29T11:44:58;95913.06;;;30.95;59.79
64141;BME280;50436;50.618;7.932;2023-07-29T11:47:45;95918.97;;;30.97;72.14
64141;BME280;50436;50.618;7.932;2023-07-29T11:50:31;95933.16;;;28.84;77.93
64141;BME280;50436;50.618;7.932;2023-07-29T11:53:17;95920.03;;;26.93;88.26
64141;BME280;50436;50.618;7.932;2023-07-29T11:56:03;95923.13;;;26.92;91.58
64141;BME280;50436;50.618;7.932;2023-07-29T11:58:49;95910.28;;;30.70;70.22
64141;BME280;50436;50.618;7.932;2023-07-29T12:01:35;95905.53;;;32.68;53.75
64141;BME280;50436;50.618;7.932;2023-07-29T12:04:21;95909.09;;;30.78;72.64
64141;BME280;50436;50.618;7.932;2023-07-29T12:07:07;95920.31;;;28.21;83.57
64141;BME280;50436;50.618;7.932;2023-07-29T12:09:57;95910.69;;;27.21;88.14
64141;BME280;50436;50.618;7.932;2023-07-29T12:12:47;95918.84;;;25.91;90.56
64141;BME280;50436;50.618;7.932;2023-07-29T12:15:33;95910.09;;;24.67;100.00
64141;BME280;50436;50.618;7.932;2023-07-29T12:18:18;95919.94;;;24.12;100.00
64141;BME280;50436;50.618;7.932;2023-07-29T12:21:04;95911.88;;;23.76;100.00
64141;BME280;50436;50.618;7.932;2023-07-29T12:23:50;95913.03;;;23.62;100.00
64141;BME280;50436;50.618;7.932;2023-07-29T12:26:36;95906.19;;;25.67;97.94
64141;BME280;50436;50.618;7.932;2023-07-29T12:29:22;95911.63;;;25.82;89.80
64141;BME280;50436;50.618;7.932;2023-07-29T12:32:09;95915.09;;;25.28;90.98
64141;BME280;50436;50.618;7.932;2023-07-29T12:34:55;95912.28;;;29.24;70.85
64141;BME280;50436;50.618;7.932;2023-07-29T12:37:43;95906.53;;;28.92;79.31
64141;BME280;50436;50.618;7.932;2023-07-29T12:40:29;95906.81;;;28.83;79.33
64141;BME280;50436;50.618;7.932;2023-07-29T12:43:15;95906.94;;;27.33;89.86
64141;BME280;50436;50.618;7.932;2023-07-29T12:46:01;95905.19;;;26.52;90.21
64141;BME280;50436;50.618;7.932;2023-07-29T12:48:46;95903.25;;;31.29;70.61
64141;BME280;50436;50.618;7.932;2023-07-29T12:51:36;95887.81;;;36.42;42.09
64141;BME280;50436;50.618;7.932;2023-07-29T12:54:22;95902.34;;;32.77;57.21
64141;BME280;50436;50.618;7.932;2023-07-29T12:57:08;95902.69;;;30.42;69.24
64141;BME280;50436;50.618;7.932;2023-07-29T12:59:54;95904.16;;;28.49;81.20
64141;BME280;50436;50.618;7.932;2023-07-29T13:02:40;95897.59;;;30.58;71.41
64141;BME280;50436;50.618;7.932;2023-07-29T13:05:26;95900.53;;;28.86;84.89
64141;BME280;50436;50.618;7.932;2023-07-29T13:08:12;95887.88;;;34.24;51.61
64141;BME280;50436;50.618;7.932;2023-07-29T13:10:57;95889.84;;;37.43;35.36
64141;BME280;50436;50.618;7.932;2023-07-29T13:13:43;95893.88;;;34.80;47.61
64141;BME280;50436;50.618;7.932;2023-07-29T13:16:31;95907.66;;;29.38;72.16
64141;BME280;50436;50.618;7.932;2023-07-29T13:19:18;95916.72;;;27.57;86.99
64141;BME280;50436;50.618;7.932;2023-07-29T13:22:04;95912.59;;;26.94;90.87
64141;BME280;50436;50.618;7.932;2023-07-29T13:24:50;95902.81;;;26.74;91.78
64141;BME280;50436;50.618;7.932;2023-07-29T13:27:36;95903.25;;;26.76;91.90
64141;BME280;50436;50.618;7.932;2023-07-29T13:30:22;95899.31;;;27.23;91.04
64141;BME280;50436;50.618;7.932;2023-07-29T13:33:08;95902.84;;;27.23;90.64
64141;BME280;50436;50.618;7.932;2023-07-29T13:35:53;95907.84;;;27.67;90.27
64141;BME280;50436;50.618;7.932;2023-07-29T13:38:39;95903.63;;;31.39;68.82
64141;BME280;50436;50.618;7.932;2023-07-29T13:41:25;95901.81;;;36.18;45.04
64141;BME280;50436;50.618;7.932;2023-07-29T13:44:11;95902.41;;;39.18;32.69
64141;BME280;50436;50.618;7.932;2023-07-29T13:46:57;95900.13;;;39.86;32.36
64141;BME280;50436;50.618;7.932;2023-07-29T13:49:43;95899.09;;;40.58;30.84
64141;BME280;50436;50.618;7.932;2023-07-29T13:52:28;95895.66;;;39.41;30.15
64141;BME280;50436;50.618;7.932;2023-07-29T13:55:14;95903.03;;;34.16;49.24
64141;BME280;50436;50.618;7.932;2023-07-29T13:58:00;95889.50;;;36.92;40.36
64141;BME280;50436;50.618;7.932;2023-07-29T14:00:46;95887.81;;;36.42;38.10
64141;BME280;50436;50.618;7.932;2023-07-29T14:03:32;95881.75;;;36.99;35.56
64141;BME280;50436;50.618;7.932;2023-07-29T14:06:18;95893.66;;;35.21;40.86
64141;BME280;50436;50.618;7.932;2023-07-29T14:09:03;95894.88;;;31.65;62.75
64141;BME280;50436;50.618;7.932;2023-07-29T14:11:49;95899.63;;;31.61;59.81
64141;BME280;50436;50.618;7.932;2023-07-29T14:14:35;95892.19;;;33.12;51.85
64141;BME280;50436;50.618;7.932;2023-07-29T14:17:21;95885.78;;;35.16;45.01
64141;BME280;50436;50.618;7.932;2023-07-29T14:20:07;95880.75;;;33.55;44.91
64141;BME280;50436;50.618;7.932;2023-07-29T14:22:53;95886.88;;;29.48;67.81
64141;BME280;50436;50.618;7.932;2023-07-29T14:25:39;95904.56;;;28.51;81.66
64141;BME280;50436;50.618;7.932;2023-07-29T14:28:25;95899.50;;;27.90;85.56
64141;BME280;50436;50.618;7.932;2023-07-29T14:31:10;95899.31;;;27.23;88.25
64141;BME280;50436;50.618;7.932;2023-07-29T14:33:59;95907.75;;;26.64;91.54
64141;BME280;50436;50.618;7.932;2023-07-29T14:36:45;95898.50;;;26.30;93.07